Time;durP1;ratioP1;P1;durP2;ratioP2;P2;SDS_P1;SDS_P2;PMS_P1;PMS_P2;Temp;Humidity;BMP_temperature;BMP_pressure;BME280_temperature;BME280_humidity;BME280_pressure;Samples;Min_cycle;Max_cycle;Signal;HPM_P1;HPM_P2
2023/03/31 00:01:06;;;;;;;8.10;7.90;;;20.70;59.50;;;;;;5013907;28;20443;-59
2023/03/31 00:03:37;;;;;;;8.00;7.80;;;20.60;59.40;;;;;;5013862;28;20493;-60
2023/03/31 00:06:05;;;;;;;8.50;8.13;;;20.70;59.50;;;;;;5013791;28;20446;-58
2023/03/31 00:08:35;;;;;;;8.23;7.97;;;20.70;59.50;;;;;;5013160;28;20477;-59
2023/03/31 00:11:06;;;;;;;8.20;7.90;;;20.60;59.50;;;;;;5013635;28;20478;-61
2023/03/31 00:13:33;;;;;;;9.40;9.10;;;20.60;59.60;;;;;;5013648;28;20504;-58
2023/03/31 00:16:02;;;;;;;8.60;8.20;;;20.60;59.60;;;;;;5013577;28;20854;-57
2023/03/31 00:18:29;;;;;;;9.10;8.80;;;20.60;59.60;;;;;;5013614;28;20509;-59
2023/03/31 00:21:06;;;;;;;8.40;8.10;;;20.60;59.60;;;;;;5013493;28;20485;-58
2023/03/31 00:23:33;;;;;;;7.83;7.63;;;20.60;59.60;;;;;;5013073;28;20862;-57
2023/03/31 00:25:59;;;;;;;7.70;7.50;;;20.60;59.60;;;;;;5013445;28;20532;-59
2023/03/31 00:28:28;;;;;;;8.10;7.90;;;20.60;59.70;;;;;;5013027;28;20544;-60
2023/03/31 00:31:01;;;;;;;8.67;8.27;;;20.60;59.60;;;;;;5013407;28;20517;-60
2023/03/31 00:33:28;;;;;;;8.50;7.90;;;20.60;59.60;;;;;;5013147;28;20454;-59
2023/03/31 00:35:55;;;;;;;8.27;8.07;;;20.60;59.70;;;;;;5013144;28;20457;-58
2023/03/31 00:38:22;;;;;;;8.97;8.67;;;20.60;59.70;;;;;;5012849;28;20474;-58
2023/03/31 00:40:49;;;;;;;8.90;8.60;;;20.60;59.70;;;;;;5013249;28;20477;-58
2023/03/31 00:43:28;;;;;;;8.37;8.17;;;20.50;59.70;;;;;;5012806;28;20473;-60
2023/03/31 00:46:02;;;;;;;8.53;8.30;;;20.50;59.70;;;;;;5013203;28;20441;-60
2023/03/31 00:48:30;;;;;;;8.50;8.30;;;20.50;59.70;;;;;;5012857;28;20504;-59
2023/03/31 00:50:59;;;;;;;8.10;7.90;;;20.50;59.70;;;;;;5013008;28;20568;-58
2023/03/31 00:53:29;;;;;;;8.83;8.53;;;20.50;59.80;;;;;;5012825;28;20532;-59
2023/03/31 00:56:01;;;;;;;8.47;8.23;;;20.50;59.80;;;;;;5012953;28;20537;-58
2023/03/31 00:58:32;;;;;;;8.67;8.37;;;20.50;59.90;;;;;;5012710;28;20910;-61
2023/03/31 01:01:01;;;;;;;8.00;7.80;;;20.50;59.90;;;;;;5012897;28;20815;-60
2023/03/31 01:03:29;;;;;;;8.00;7.90;;;20.50;59.90;;;;;;5011533;28;20472;-58
2023/03/31 01:06:00;;;;;;;7.80;7.60;;;20.50;59.90;;;;;;5012902;28;20454;-61
2023/03/31 01:08:28;;;;;;;8.10;7.90;;;20.50;60.00;;;;;;5012292;28;20913;-61
2023/03/31 01:10:57;;;;;;;9.00;8.67;;;20.50;60.00;;;;;;5012611;28;20577;-58
2023/03/31 01:13:26;;;;;;;8.80;8.50;;;20.50;60.20;;;;;;5012446;28;20537;-61
2023/03/31 01:15:54;;;;;;;8.20;8.00;;;20.40;60.10;;;;;;5012771;28;20442;-60
2023/03/31 01:18:21;;;;;;;8.90;8.50;;;20.50;60.20;;;;;;5012252;28;20504;-60
2023/03/31 01:21:22;;;;;;;8.60;8.40;;;20.40;60.20;;;;;;5012662;28;20533;-60
2023/03/31 01:24:25;;;;;;;8.17;7.97;;;20.40;60.20;;;;;;5012270;28;20450;-58
2023/03/31 01:27:06;;;;;;;7.87;7.67;;;20.50;60.30;;;;;;5002396;28;20881;-58
2023/03/31 01:29:58;;;;;;;8.50;8.20;;;20.40;60.20;;;;;;5012289;28;21003;-57
2023/03/31 01:33:08;;;;;;;8.40;7.90;;;20.40;60.40;;;;;;5011717;28;20516;-57
2023/03/31 01:35:59;;;;;;;8.30;7.97;;;20.40;60.50;;;;;;5012274;28;20485;-58
2023/03/31 01:39:00;;;;;;;8.10;7.90;;;20.40;60.60;;;;;;5011953;28;20467;-59
2023/03/31 01:41:44;;;;;;;7.80;7.60;;;20.40;60.70;;;;;;5011941;28;20477;-59
2023/03/31 01:44:20;;;;;;;9.10;8.70;;;20.40;60.80;;;;;;5012184;28;20485;-57
2023/03/31 01:46:53;;;;;;;8.40;8.10;;;20.40;60.80;;;;;;5012126;28;20441;-60
2023/03/31 01:49:29;;;;;;;8.40;8.20;;;20.30;60.60;;;;;;5011885;28;20516;-59
2023/03/31 01:52:03;;;;;;;8.30;8.10;;;20.40;60.90;;;;;;5011787;28;21025;-60
2023/03/31 01:54:38;;;;;;;8.67;8.40;;;20.40;60.90;;;;;;5012009;28;20469;-60
2023/03/31 01:57:14;;;;;;;8.00;7.80;;;20.40;60.90;;;;;;5011861;28;20441;-58
2023/03/31 01:59:49;;;;;;;8.10;7.80;;;20.30;61.50;;;;;;5011855;28;20552;-60
2023/03/31 02:02:20;;;;;;;9.00;8.70;;;20.30;60.90;;;;;;5011688;28;20445;-61
2023/03/31 02:04:49;;;;;;;8.80;8.60;;;20.30;60.90;;;;;;5011944;28;20445;-61
2023/03/31 02:07:21;;;;;;;9.00;8.80;;;20.30;60.80;;;;;;5011844;28;20537;-59
2023/03/31 02:09:53;;;;;;;9.83;9.53;;;20.30;60.90;;;;;;5012245;28;20564;-59
2023/03/31 02:12:25;;;;;;;9.03;8.83;;;20.30;60.90;;;;;;5011945;28;20581;-59
2023/03/31 02:14:55;;;;;;;9.20;8.90;;;20.30;61.00;;;;;;5014997;28;20563;-59
2023/03/31 02:17:29;;;;;;;8.90;8.67;;;20.30;61.00;;;;;;5015684;28;20529;-59
2023/03/31 02:19:59;;;;;;;8.70;8.50;;;20.30;61.10;;;;;;5015693;28;20457;-61
2023/03/31 02:22:29;;;;;;;8.73;8.53;;;20.30;61.10;;;;;;5016036;28;20461;-60
2023/03/31 02:24:57;;;;;;;8.57;8.37;;;20.30;61.20;;;;;;5016318;28;20446;-59
2023/03/31 02:27:28;;;;;;;8.23;8.03;;;20.30;61.20;;;;;;5015495;28;20536;-60
2023/03/31 02:29:55;;;;;;;8.67;8.47;;;20.30;61.20;;;;;;5015469;28;20489;-59
2023/03/31 02:32:25;;;;;;;9.10;8.90;;;20.30;61.20;;;;;;5015449;28;20568;-59
2023/03/31 02:34:52;;;;;;;9.23;8.93;;;20.30;61.20;;;;;;5015531;28;20520;-60
2023/03/31 02:37:19;;;;;;;9.83;9.60;;;20.30;61.30;;;;;;5015182;28;20524;-60
2023/03/31 02:39:49;;;;;;;9.47;9.20;;;20.20;61.30;;;;;;5015217;28;20500;-59
2023/03/31 02:42:16;;;;;;;9.40;9.10;;;20.30;61.40;;;;;;5015465;28;20524;-60
2023/03/31 02:44:44;;;;;;;9.57;9.27;;;20.30;61.30;;;;;;5015317;28;21030;-58
2023/03/31 02:47:14;;;;;;;9.93;9.67;;;20.30;61.30;;;;;;5015055;28;20890;-59
2023/03/31 02:49:44;;;;;;;9.03;8.83;;;20.20;61.20;;;;;;5015134;28;20552;-59
2023/03/31 02:52:41;;;;;;;9.60;9.30;;;20.30;61.40;;;;;;5015195;28;20513;-59
2023/03/31 02:55:30;;;;;;;9.30;9.10;;;20.30;61.50;;;;;;5015380;28;20533;-60
2023/03/31 02:58:29;;;;;;;8.57;8.37;;;20.30;61.50;;;;;;5014806;28;20656;-59
2023/03/31 03:01:23;;;;;;;8.93;8.67;;;20.30;61.60;;;;;;5014883;28;20533;-59
2023/03/31 03:04:02;;;;;;;9.83;9.33;;;20.20;61.60;;;;;;5015021;28;20521;-60
2023/03/31 03:06:42;;;;;;;8.07;7.87;;;20.20;61.60;;;;;;5015055;28;20524;-60
2023/03/31 03:09:18;;;;;;;7.53;7.33;;;20.20;61.80;;;;;;5014512;28;20568;-58
2023/03/31 03:11:50;;;;;;;8.10;7.83;;;20.20;61.80;;;;;;5014753;28;20572;-59
2023/03/31 03:14:27;;;;;;;7.93;7.60;;;20.20;61.90;;;;;;5014838;28;20485;-59
2023/03/31 03:17:00;;;;;;;8.17;7.97;;;20.20;62.00;;;;;;5014720;28;20477;-58
2023/03/31 03:19:26;;;;;;;8.67;8.17;;;20.20;62.00;;;;;;5014412;28;20909;-58
2023/03/31 03:21:54;;;;;;;7.90;7.70;;;20.20;62.00;;;;;;5014894;28;20485;-59
2023/03/31 03:24:21;;;;;;;8.07;7.77;;;20.20;62.10;;;;;;5014530;28;20484;-59
2023/03/31 03:26:48;;;;;;;8.93;8.57;;;20.20;62.10;;;;;;5013398;28;20569;-60
2023/03/31 03:29:15;;;;;;;8.30;8.00;;;20.20;62.20;;;;;;5014321;28;20549;-59
2023/03/31 03:31:42;;;;;;;9.60;9.10;;;20.20;62.20;;;;;;5014382;28;20572;-60
2023/03/31 03:34:10;;;;;;;9.77;9.20;;;20.20;62.20;;;;;;5014756;28;20484;-59
2023/03/31 03:36:38;;;;;;;10.60;9.93;;;20.20;62.20;;;;;;5014299;28;20529;-59
2023/03/31 03:39:07;;;;;;;8.90;8.60;;;20.20;62.20;;;;;;5014148;28;20552;-61
2023/03/31 03:41:34;;;;;;;8.50;8.20;;;20.20;62.30;;;;;;5014563;28;20454;-60
2023/03/31 03:44:01;;;;;;;7.80;7.60;;;20.20;62.20;;;;;;5014132;28;20487;-60
2023/03/31 03:46:28;;;;;;;8.90;8.70;;;20.20;62.30;;;;;;5014261;28;20923;-59
2023/03/31 03:48:55;;;;;;;9.47;9.07;;;20.20;62.30;;;;;;5013886;28;20526;-60
2023/03/31 03:51:24;;;;;;;8.97;8.57;;;20.20;62.40;;;;;;5014158;28;20928;-61
2023/03/31 03:53:51;;;;;;;9.67;9.27;;;20.10;62.20;;;;;;5014023;28;20962;-61
2023/03/31 03:56:18;;;;;;;9.50;9.00;;;20.10;62.30;;;;;;5014140;28;20992;-61
2023/03/31 03:58:44;;;;;;;9.40;9.00;;;20.10;62.40;;;;;;5013835;28;20573;-61
2023/03/31 04:01:11;;;;;;;9.13;8.83;;;20.10;62.40;;;;;;5014124;28;21023;-61
2023/03/31 04:03:38;;;;;;;9.13;8.73;;;20.10;62.40;;;;;;5013846;28;21030;-60
2023/03/31 04:06:05;;;;;;;8.83;8.50;;;20.10;62.40;;;;;;5014805;28;20887;-59
2023/03/31 04:08:34;;;;;;;9.77;9.37;;;20.10;62.40;;;;;;5013483;28;20552;-60
2023/03/31 04:11:01;;;;;;;8.87;8.67;;;20.10;62.40;;;;;;5013823;28;20858;-60
2023/03/31 04:13:28;;;;;;;8.20;8.00;;;20.10;62.40;;;;;;5013773;28;20536;-60
2023/03/31 04:15:55;;;;;;;10.00;9.30;;;20.10;62.40;;;;;;5013513;28;20473;-59
2023/03/31 04:18:22;;;;;;;9.10;8.60;;;20.10;62.50;;;;;;5013400;28;21039;-59
2023/03/31 04:20:53;;;;;;;9.67;9.30;;;20.10;62.40;;;;;;5013600;28;20450;-59
2023/03/31 04:23:22;;;;;;;8.90;8.60;;;20.10;62.40;;;;;;5013353;28;21022;-59
2023/03/31 04:25:51;;;;;;;9.53;9.23;;;20.10;62.60;;;;;;5013422;28;20450;-60
2023/03/31 04:28:18;;;;;;;8.73;8.53;;;20.10;62.70;;;;;;5013121;28;20482;-59
2023/03/31 04:30:46;;;;;;;9.13;8.83;;;20.10;62.70;;;;;;5013384;28;20863;-61
2023/03/31 04:33:14;;;;;;;9.30;9.00;;;20.10;63.50;;;;;;5013197;28;20569;-59
2023/03/31 04:35:51;;;;;;;8.70;8.47;;;20.00;62.80;;;;;;5013575;28;20450;-60
2023/03/31 04:38:20;;;;;;;8.87;8.57;;;20.10;63.10;;;;;;5012806;28;20873;-60
2023/03/31 04:40:48;;;;;;;9.30;9.00;;;20.00;63.00;;;;;;5013316;28;20528;-62
2023/03/31 04:43:17;;;;;;;7.80;7.60;;;20.10;63.90;;;;;;5013030;28;20873;-62
2023/03/31 04:45:44;;;;;;;8.60;8.30;;;20.10;63.30;;;;;;5013057;28;20533;-62
2023/03/31 04:48:12;;;;;;;8.93;8.43;;;20.10;63.30;;;;;;5012776;28;20493;-62
2023/03/31 04:50:39;;;;;;;7.70;7.50;;;20.00;62.90;;;;;;5012872;28;20477;-62
2023/03/31 04:53:06;;;;;;;8.20;7.90;;;20.10;62.90;;;;;;5012880;28;21054;-62
2023/03/31 04:55:33;;;;;;;8.20;7.90;;;20.10;62.70;;;;;;5012970;28;20500;-62
2023/03/31 04:58:00;;;;;;;8.03;7.83;;;20.00;62.40;;;;;;5012678;28;20502;-61
2023/03/31 05:00:29;;;;;;;8.30;8.10;;;20.00;62.10;;;;;;5012735;28;20525;-61
2023/03/31 05:02:56;;;;;;;9.30;8.80;;;20.00;62.00;;;;;;5012739;28;20526;-62
2023/03/31 05:05:22;;;;;;;8.63;8.33;;;19.90;61.70;;;;;;5012757;28;20554;-63
2023/03/31 05:07:49;;;;;;;8.93;8.63;;;19.90;61.90;;;;;;5012400;28;20572;-62
2023/03/31 05:10:17;;;;;;;9.70;9.23;;;19.90;62.00;;;;;;5012607;28;20450;-62
2023/03/31 05:12:44;;;;;;;7.70;7.37;;;19.90;61.90;;;;;;5012515;28;20588;-63
2023/03/31 05:15:11;;;;;;;9.30;9.10;;;19.90;62.00;;;;;;5012686;28;20529;-64
2023/03/31 05:17:39;;;;;;;9.23;8.57;;;19.90;63.80;;;;;;5012453;28;20525;-64
2023/03/31 05:20:08;;;;;;;9.37;9.07;;;20.00;63.80;;;;;;5012764;28;20533;-63
2023/03/31 05:22:36;;;;;;;9.53;9.23;;;20.10;63.90;;;;;;5012699;28;20452;-60
2023/03/31 05:25:05;;;;;;;10.40;9.80;;;20.20;63.50;;;;;;5012925;28;20955;-62
2023/03/31 05:27:32;;;;;;;9.07;8.87;;;20.30;63.20;;;;;;5010704;28;20453;-64
2023/03/31 05:29:59;;;;;;;9.00;8.50;;;20.40;63.00;;;;;;5010011;28;20533;-64
2023/03/31 05:32:26;;;;;;;8.80;8.43;;;20.50;63.00;;;;;;5012417;28;20569;-64
2023/03/31 05:34:56;;;;;;;8.87;8.67;;;20.50;62.40;;;;;;5013494;28;20478;-62
2023/03/31 05:37:24;;;;;;;9.97;9.60;;;20.60;62.10;;;;;;5013122;28;20708;-59
2023/03/31 05:39:51;;;;;;;10.10;9.70;;;20.60;61.60;;;;;;5012654;28;20451;-61
2023/03/31 05:42:20;;;;;;;9.68;8.77;;;20.60;61.30;;;;;;5010844;28;20526;-62
2023/03/31 05:44:47;;;;;;;14.00;13.60;;;20.60;61.70;;;;;;5014107;28;20227;-63
2023/03/31 05:47:14;;;;;;;14.20;13.60;;;20.80;61.50;;;;;;5013845;28;20478;-63
2023/03/31 05:49:41;;;;;;;13.67;13.37;;;20.80;61.60;;;;;;5012606;28;20501;-63
2023/03/31 05:52:10;;;;;;;13.83;13.43;;;20.80;61.50;;;;;;5012834;28;20864;-63
2023/03/31 05:54:37;;;;;;;13.73;13.23;;;20.90;61.40;;;;;;5012913;28;20504;-60
2023/03/31 05:57:04;;;;;;;14.80;14.30;;;20.90;61.30;;;;;;5012821;28;20541;-63
2023/03/31 05:59:33;;;;;;;15.83;15.33;;;20.90;61.40;;;;;;5012901;28;20501;-62
2023/03/31 06:02:00;;;;;;;15.23;14.63;;;20.90;61.50;;;;;;5012473;28;20928;-63
2023/03/31 06:04:28;;;;;;;16.27;15.77;;;20.80;61.20;;;;;;5012132;28;20504;-63
2023/03/31 06:06:56;;;;;;;17.53;17.03;;;20.90;61.10;;;;;;5011902;28;20990;-64
2023/03/31 06:09:25;;;;;;;15.20;14.80;;;20.90;61.00;;;;;;5011728;28;20489;-63
2023/03/31 06:11:52;;;;;;;14.93;14.50;;;20.90;60.80;;;;;;5011881;28;20478;-63
2023/03/31 06:14:19;;;;;;;15.30;14.70;;;20.90;60.70;;;;;;5011626;28;20513;-62
2023/03/31 06:16:47;;;;;;;14.10;13.60;;;20.90;60.70;;;;;;5012418;28;20446;-63
2023/03/31 06:19:14;;;;;;;15.03;14.63;;;21.00;60.60;;;;;;5013148;28;20482;-63
2023/03/31 06:21:41;;;;;;;14.00;13.60;;;21.00;60.60;;;;;;5012601;28;20450;-62
2023/03/31 06:24:09;;;;;;;14.00;13.60;;;21.00;60.20;;;;;;5013059;28;20477;-64
2023/03/31 06:26:37;;;;;;;14.67;14.10;;;21.10;60.10;;;;;;5013155;28;20477;-62
2023/03/31 06:29:04;;;;;;;14.70;14.30;;;21.10;59.80;;;;;;5013124;28;20505;-65
2023/03/31 06:31:31;;;;;;;14.40;13.57;;;21.10;59.50;;;;;;5010834;28;20952;-63
2023/03/31 06:33:58;;;;;;;14.10;13.60;;;21.10;60.80;;;;;;5012178;28;20844;-63
2023/03/31 06:36:25;;;;;;;15.50;15.10;;;21.10;60.60;;;;;;5012259;28;20470;-59
2023/03/31 06:38:53;;;;;;;14.70;14.37;;;21.10;60.50;;;;;;5012271;28;21053;-59
2023/03/31 06:41:21;;;;;;;15.07;14.57;;;21.20;60.20;;;;;;5011562;28;20528;-59
2023/03/31 06:43:49;;;;;;;13.93;13.32;;;21.20;60.10;;;;;;5011555;28;20932;-58
2023/03/31 06:46:16;;;;;;;15.90;15.37;;;21.20;59.80;;;;;;5011869;28;20245;-59
2023/03/31 06:48:43;;;;;;;15.00;14.60;;;21.20;59.70;;;;;;5011416;28;20544;-59
2023/03/31 06:51:10;;;;;;;15.47;14.97;;;21.30;59.50;;;;;;5011624;28;20883;-60
2023/03/31 06:53:37;;;;;;;15.63;15.03;;;21.30;59.20;;;;;;5011481;28;20543;-60
2023/03/31 06:56:06;;;;;;;16.10;15.20;;;21.30;59.00;;;;;;5011833;28;20501;-59
2023/03/31 06:58:33;;;;;;;15.80;15.30;;;21.30;58.80;;;;;;5011536;28;20889;-58
2023/03/31 07:01:02;;;;;;;15.60;15.10;;;21.30;58.70;;;;;;5015053;28;20569;-56
2023/03/31 07:03:29;;;;;;;15.77;15.17;;;21.30;58.90;;;;;;5016404;28;20442;-60
2023/03/31 07:05:56;;;;;;;14.93;14.53;;;21.30;59.00;;;;;;5016496;28;20481;-61
2023/03/31 07:08:24;;;;;;;15.10;14.60;;;21.40;59.00;;;;;;5011105;28;20513;-62
2023/03/31 07:10:56;;;;;;;15.00;14.50;;;21.40;58.90;;;;;;4996669;28;20952;-61
2023/03/31 07:13:24;;;;;;;16.23;15.63;;;21.40;58.90;;;;;;4996954;28;20482;-61
2023/03/31 07:15:51;;;;;;;14.80;14.40;;;21.40;58.90;;;;;;4996001;28;20541;-59
2023/03/31 07:18:20;;;;;;;15.50;15.10;;;21.40;58.80;;;;;;4998474;28;20536;-61
2023/03/31 07:20:49;;;;;;;15.70;15.20;;;21.40;58.80;;;;;;5015792;28;20477;-61
2023/03/31 07:23:16;;;;;;;15.87;15.37;;;21.40;58.70;;;;;;5015674;28;20442;-60
2023/03/31 07:25:44;;;;;;;17.10;16.60;;;21.50;58.80;;;;;;5015335;28;20555;-60
2023/03/31 07:28:11;;;;;;;16.30;15.70;;;21.50;58.60;;;;;;5014480;28;20558;-60
2023/03/31 07:30:39;;;;;;;15.40;14.97;;;21.50;58.60;;;;;;5015388;28;20947;-60
2023/03/31 07:33:07;;;;;;;15.57;15.07;;;21.50;58.50;;;;;;5015974;28;20486;-61
2023/03/31 07:35:38;;;;;;;15.77;15.07;;;21.50;58.60;;;;;;5016146;28;20446;-61
2023/03/31 07:38:05;;;;;;;15.53;15.03;;;21.50;58.50;;;;;;5014792;28;20885;-59
2023/03/31 07:40:32;;;;;;;16.20;15.80;;;21.50;58.40;;;;;;4995537;28;20505;-60
2023/03/31 07:42:58;;;;;;;15.50;15.10;;;21.50;58.40;;;;;;4995971;28;20510;-65
2023/03/31 07:45:26;;;;;;;14.63;14.23;;;21.50;58.50;;;;;;4996376;28;20482;-64
2023/03/31 07:47:54;;;;;;;15.50;15.10;;;21.50;58.60;;;;;;4996039;28;20887;-62
2023/03/31 07:50:23;;;;;;;16.60;16.20;;;21.40;58.40;;;;;;5013676;28;20449;-60
2023/03/31 07:52:51;;;;;;;15.50;15.00;;;21.30;58.70;;;;;;5015562;28;20481;-63
2023/03/31 07:55:19;;;;;;;15.20;14.80;;;21.30;58.90;;;;;;5007308;28;20474;-63
2023/03/31 07:57:47;;;;;;;15.80;15.33;;;21.30;59.10;;;;;;5014470;28;20569;-63
2023/03/31 08:00:15;;;;;;;15.10;14.70;;;21.30;59.10;;;;;;5014928;28;20548;-61
2023/03/31 08:02:43;;;;;;;16.50;15.63;;;21.30;59.20;;;;;;5015084;28;20853;-63
2023/03/31 08:05:11;;;;;;;14.40;14.00;;;21.30;59.30;;;;;;5013910;28;20474;-63
2023/03/31 08:07:40;;;;;;;15.90;15.40;;;21.30;59.40;;;;;;5014874;28;20593;-66
2023/03/31 08:10:11;;;;;;;15.87;15.30;;;21.40;59.30;;;;;;5014986;28;20450;-67
2023/03/31 08:12:38;;;;;;;15.93;15.43;;;21.40;59.20;;;;;;5014906;28;20982;-64
2023/03/31 08:15:06;;;;;;;16.63;16.23;;;21.40;59.20;;;;;;5016231;28;20851;-64
2023/03/31 08:17:33;;;;;;;17.10;16.60;;;21.40;59.30;;;;;;5016417;28;20504;-64
2023/03/31 08:20:00;;;;;;;16.83;16.03;;;21.40;59.20;;;;;;5016341;28;20469;-63
2023/03/31 08:22:27;;;;;;;16.93;16.33;;;21.30;58.70;;;;;;5016891;28;20450;-67
2023/03/31 08:24:54;;;;;;;16.40;15.90;;;21.20;58.70;;;;;;5016726;28;20489;-64
2023/03/31 08:27:23;;;;;;;15.73;15.23;;;21.30;58.80;;;;;;5015647;28;20454;-65
2023/03/31 08:29:49;;;;;;;16.70;15.80;;;21.30;59.10;;;;;;5015082;28;20481;-63
2023/03/31 08:32:16;;;;;;;15.50;15.00;;;21.30;59.20;;;;;;5014450;28;20811;-62
2023/03/31 08:34:44;;;;;;;16.67;16.17;;;21.40;59.50;;;;;;5014964;28;20550;-62
2023/03/31 08:37:11;;;;;;;16.07;15.67;;;21.40;59.50;;;;;;5014842;28;20446;-62
2023/03/31 08:39:38;;;;;;;15.63;15.23;;;21.40;59.40;;;;;;5015069;28;20549;-60
2023/03/31 08:42:08;;;;;;;15.90;15.50;;;21.50;59.50;;;;;;5015998;28;20458;-62
2023/03/31 08:44:40;;;;;;;15.73;15.33;;;21.50;59.30;;;;;;5015227;28;20879;-63
2023/03/31 08:47:11;;;;;;;16.07;15.57;;;21.50;59.30;;;;;;5015129;28;20534;-60
2023/03/31 08:49:44;;;;;;;15.90;15.50;;;21.50;59.30;;;;;;5015117;28;20497;-62
2023/03/31 08:52:15;;;;;;;15.68;15.18;;;21.50;59.20;;;;;;5014666;28;20451;-64
2023/03/31 08:54:45;;;;;;;15.60;15.00;;;21.50;59.10;;;;;;5015213;28;20700;-61
2023/03/31 08:57:19;;;;;;;15.10;14.70;;;21.50;59.10;;;;;;5014522;28;20454;-58
2023/03/31 08:59:48;;;;;;;16.47;15.87;;;21.60;58.90;;;;;;5014320;28;20474;-59
2023/03/31 09:02:25;;;;;;;14.80;14.40;;;21.50;58.30;;;;;;5014209;28;20450;-60
2023/03/31 09:05:28;;;;;;;15.63;15.13;;;21.50;58.40;;;;;;5014002;28;20529;-58
2023/03/31 09:08:04;;;;;;;15.90;15.37;;;21.50;58.40;;;;;;5014921;28;20520;-63
2023/03/31 09:10:46;;;;;;;15.57;15.07;;;21.60;58.30;;;;;;5015109;28;20456;-59
2023/03/31 09:13:45;;;;;;;15.57;15.17;;;21.60;58.40;;;;;;5013404;28;20516;-59
2023/03/31 09:16:16;;;;;;;15.90;15.43;;;21.60;58.40;;;;;;5008064;28;20485;-60
2023/03/31 09:18:45;;;;;;;16.37;15.97;;;21.70;58.50;;;;;;5013424;28;20578;-63
2023/03/31 09:21:18;;;;;;;16.13;15.63;;;21.70;58.60;;;;;;5013580;28;20450;-63
2023/03/31 09:23:52;;;;;;;16.27;15.80;;;21.60;58.60;;;;;;5012427;28;20537;-60
2023/03/31 09:26:25;;;;;;;16.17;15.77;;;21.60;58.60;;;;;;5013985;28;20454;-62
2023/03/31 09:28:54;;;;;;;16.70;16.20;;;21.60;58.60;;;;;;5016007;28;20313;-61
2023/03/31 09:31:23;;;;;;;15.93;15.40;;;21.70;58.50;;;;;;5015606;28;20446;-63
2023/03/31 09:33:55;;;;;;;16.33;15.33;;;21.70;58.20;;;;;;5015467;28;20573;-62
2023/03/31 09:36:22;;;;;;;15.83;15.20;;;21.70;58.50;;;;;;5014615;28;20442;-66
2023/03/31 09:38:49;;;;;;;15.70;15.20;;;21.70;58.50;;;;;;5014350;28;20474;-64
2023/03/31 09:41:17;;;;;;;15.53;15.13;;;21.70;58.30;;;;;;5014527;28;20485;-65
2023/03/31 09:43:45;;;;;;;16.93;16.33;;;21.70;58.50;;;;;;5014102;28;20445;-64
2023/03/31 09:46:18;;;;;;;16.10;15.70;;;21.60;58.50;;;;;;5014650;28;20529;-63
2023/03/31 09:48:55;;;;;;;15.90;15.50;;;21.70;58.70;;;;;;5013532;28;20816;-63
2023/03/31 09:51:28;;;;;;;17.23;16.73;;;21.70;58.60;;;;;;5013657;28;20977;-63
2023/03/31 09:54:01;;;;;;;17.20;16.70;;;21.70;58.60;;;;;;5013698;28;20481;-64
2023/03/31 09:56:45;;;;;;;16.23;15.73;;;21.70;58.60;;;;;;5014150;28;20446;-63
2023/03/31 09:59:16;;;;;;;16.60;16.10;;;21.60;58.60;;;;;;5013490;28;20462;-61
2023/03/31 10:01:45;;;;;;;14.45;13.95;;;21.60;58.60;;;;;;5013166;28;20809;-63
2023/03/31 10:04:20;;;;;;;15.53;15.13;;;21.60;58.50;;;;;;5014741;28;20280;-61
2023/03/31 10:06:48;;;;;;;16.50;15.90;;;21.70;58.50;;;;;;5014532;28;20449;-67
2023/03/31 10:09:16;;;;;;;15.70;15.20;;;21.70;58.40;;;;;;5013332;28;20480;-66
2023/03/31 10:11:56;;;;;;;14.73;14.33;;;21.70;57.80;;;;;;5013394;28;20521;-64
2023/03/31 10:14:27;;;;;;;16.00;15.50;;;21.70;58.20;;;;;;5014192;28;20573;-66
2023/03/31 10:16:55;;;;;;;17.40;16.80;;;21.70;58.30;;;;;;5014249;28;20446;-66
2023/03/31 10:19:26;;;;;;;16.37;15.77;;;21.70;58.40;;;;;;5013196;28;20485;-66
2023/03/31 10:21:58;;;;;;;16.37;15.97;;;21.70;58.40;;;;;;5015084;28;20507;-66
2023/03/31 10:24:26;;;;;;;17.50;17.00;;;21.70;58.30;;;;;;5014454;28;20452;-66
2023/03/31 10:26:55;;;;;;;16.20;15.60;;;21.60;58.70;;;;;;5013835;28;20459;-63
2023/03/31 10:29:28;;;;;;;18.00;17.50;;;21.60;58.30;;;;;;5015731;28;20506;-64
2023/03/31 10:31:55;;;;;;;14.95;14.45;;;21.60;58.30;;;;;;5013371;28;20443;-62
2023/03/31 10:34:25;;;;;;;17.40;16.80;;;21.50;58.50;;;;;;5014959;28;20254;-66
2023/03/31 10:36:52;;;;;;;17.70;17.20;;;21.70;58.60;;;;;;5018644;28;20533;-65
2023/03/31 10:39:20;;;;;;;16.83;16.33;;;21.70;58.60;;;;;;5019352;28;20840;-64
2023/03/31 10:41:51;;;;;;;16.80;16.20;;;21.70;58.60;;;;;;5018760;28;20449;-65
2023/03/31 10:44:33;;;;;;;17.47;16.90;;;21.70;58.50;;;;;;5018660;28;20481;-63
2023/03/31 10:47:05;;;;;;;14.20;13.80;;;21.70;58.50;;;;;;5016673;28;20928;-64
2023/03/31 10:49:39;;;;;;;17.00;16.50;;;21.60;58.50;;;;;;5017922;28;20323;-62
2023/03/31 10:52:17;;;;;;;18.00;17.40;;;21.70;58.60;;;;;;5021267;28;20485;-63
2023/03/31 10:54:49;;;;;;;17.87;17.37;;;21.70;58.50;;;;;;5019112;28;21084;-63
2023/03/31 10:57:17;;;;;;;17.63;17.13;;;21.70;58.40;;;;;;5022762;28;20456;-63
2023/03/31 11:00:00;;;;;;;15.20;14.70;;;21.70;58.60;;;;;;5017220;28;20486;-64
2023/03/31 11:03:07;;;;;;;15.50;14.90;;;21.60;58.80;;;;;;5016702;28;20446;-64
2023/03/31 11:05:40;;;;;;;17.13;16.63;;;21.60;59.00;;;;;;4996564;28;20318;-65
2023/03/31 11:08:21;;;;;;;16.53;16.03;;;21.70;58.60;;;;;;5014916;28;20557;-65
2023/03/31 11:11:11;;;;;;;16.20;15.70;;;21.70;58.70;;;;;;5015736;28;20540;-65
2023/03/31 11:13:47;;;;;;;17.17;16.67;;;21.70;59.10;;;;;;5017320;28;20488;-65
2023/03/31 11:16:22;;;;;;;17.37;16.87;;;21.70;59.20;;;;;;5016877;28;20472;-63
2023/03/31 11:19:02;;;;;;;17.20;16.70;;;21.60;59.20;;;;;;5017343;28;20898;-63
2023/03/31 11:21:40;;;;;;;18.13;17.50;;;21.60;59.40;;;;;;5017184;28;20469;-63
2023/03/31 11:24:20;;;;;;;18.53;17.73;;;21.60;59.50;;;;;;5017005;28;20448;-64
2023/03/31 11:26:54;;;;;;;19.73;18.50;;;21.60;59.60;;;;;;5017132;28;20446;-64
2023/03/31 11:29:34;;;;;;;18.30;17.80;;;21.60;59.80;;;;;;5016793;28;20556;-65
2023/03/31 11:32:18;;;;;;;18.07;17.30;;;21.70;59.70;;;;;;5016828;28;21018;-64
2023/03/31 11:35:01;;;;;;;15.35;14.85;;;21.70;59.30;;;;;;5015385;28;20490;-67
2023/03/31 11:37:44;;;;;;;16.80;16.30;;;21.70;59.70;;;;;;5016959;28;20207;-66
2023/03/31 11:40:37;;;;;;;16.10;15.60;;;21.80;59.60;;;;;;5016433;28;20454;-63
2023/03/31 11:43:10;;;;;;;16.23;15.73;;;21.80;59.30;;;;;;5014890;28;20871;-65
2023/03/31 11:45:41;;;;;;;16.10;15.43;;;21.80;59.20;;;;;;5014331;28;20829;-63
2023/03/31 11:48:16;;;;;;;16.67;16.07;;;21.80;59.40;;;;;;5014081;28;20545;-65
2023/03/31 11:50:47;;;;;;;15.90;15.50;;;21.80;59.30;;;;;;5014406;28;20482;-64
2023/03/31 11:53:19;;;;;;;17.90;17.23;;;21.80;59.40;;;;;;5014634;28;20538;-65
2023/03/31 11:55:50;;;;;;;18.47;17.43;;;21.80;59.40;;;;;;5014418;28;21055;-64
2023/03/31 11:58:22;;;;;;;16.90;16.40;;;21.80;59.30;;;;;;5014609;28;20497;-63
2023/03/31 12:00:55;;;;;;;17.90;17.40;;;21.80;59.30;;;;;;5014581;28;20473;-64
2023/03/31 12:03:26;;;;;;;14.52;14.13;;;21.80;59.20;;;;;;5014872;28;20439;-62
2023/03/31 12:05:57;;;;;;;16.97;16.47;;;21.70;59.00;;;;;;5015499;28;20203;-62
2023/03/31 12:08:33;;;;;;;16.30;15.80;;;21.80;59.30;;;;;;5015120;28;20477;-63
2023/03/31 12:11:05;;;;;;;16.73;16.23;;;21.80;59.30;;;;;;5015520;28;20873;-62
2023/03/31 12:13:40;;;;;;;17.77;17.27;;;21.80;59.30;;;;;;5015642;28;20442;-61
2023/03/31 12:16:12;;;;;;;17.80;17.20;;;21.80;59.20;;;;;;5015341;28;20585;-60
2023/03/31 12:18:43;;;;;;;18.57;17.63;;;21.80;59.10;;;;;;5014609;28;20502;-61
2023/03/31 12:21:11;;;;;;;18.20;17.70;;;21.80;59.10;;;;;;5015365;28;20533;-60
2023/03/31 12:23:43;;;;;;;15.45;14.95;;;21.80;59.20;;;;;;5015071;28;20467;-64
2023/03/31 12:26:23;;;;;;;16.77;16.27;;;21.80;59.00;;;;;;5015566;28;20234;-64
2023/03/31 12:28:56;;;;;;;17.43;16.93;;;21.80;58.70;;;;;;5016652;28;20552;-64
2023/03/31 12:31:26;;;;;;;17.33;16.73;;;21.80;58.80;;;;;;5016101;28;20446;-64
2023/03/31 12:33:57;;;;;;;16.70;16.20;;;21.90;58.90;;;;;;5016000;28;20446;-63
2023/03/31 12:36:37;;;;;;;16.97;16.57;;;21.90;58.90;;;;;;5015389;28;21015;-64
2023/03/31 12:39:19;;;;;;;17.53;17.03;;;21.90;58.80;;;;;;5014946;28;21022;-63
2023/03/31 12:42:01;;;;;;;17.30;16.73;;;22.00;58.80;;;;;;5015397;28;20457;-64
2023/03/31 12:44:38;;;;;;;16.33;15.93;;;22.00;58.80;;;;;;5015288;28;20504;-64
2023/03/31 12:47:23;;;;;;;17.50;17.00;;;22.00;58.70;;;;;;5014958;28;20480;-64
2023/03/31 12:50:09;;;;;;;17.00;16.60;;;22.00;58.60;;;;;;5014442;28;20476;-63
2023/03/31 12:52:46;;;;;;;16.60;16.10;;;22.10;58.70;;;;;;5015030;28;20446;-64
2023/03/31 12:55:32;;;;;;;16.90;16.50;;;22.10;58.80;;;;;;5014364;28;20516;-64
2023/03/31 12:58:36;;;;;;;16.80;16.37;;;22.10;58.90;;;;;;5014646;28;20493;-64